Time;durP1;ratioP1;P1;durP2;ratioP2;P2;SDS_P1;SDS_P2;PMS_P1;PMS_P2;Temp;Humidity;BMP_temperature;BMP_pressure;BME280_temperature;BME280_humidity;BME280_pressure;Samples;Min_cycle;Max_cycle;Signal;HPM_P1;HPM_P2
2022/03/06 00:00:09;;;;;;;14.20;10.10;;;;;;;2.02;79.77;93090.78;5092435;28;20032;-49
2022/03/06 00:02:35;;;;;;;10.73;8.48;;;;;;;1.82;79.24;93094.59;5086244;28;20074;-54
2022/03/06 00:05:01;;;;;;;13.80;9.23;;;;;;;1.92;79.02;93101.25;5072145;28;20035;-53
2022/03/06 00:07:26;;;;;;;17.00;10.95;;;;;;;1.83;79.84;93090.63;5072332;28;20029;-52
2022/03/06 00:09:52;;;;;;;16.38;11.43;;;;;;;1.76;80.69;93099.31;5072385;28;20501;-51
2022/03/06 00:12:17;;;;;;;11.45;8.63;;;;;;;1.60;80.36;93096.66;5072417;28;20027;-53
2022/03/06 00:14:43;;;;;;;11.25;6.95;;;;;;;1.68;79.78;93098.34;5079556;28;20050;-54
2022/03/06 00:17:08;;;;;;;12.55;8.48;;;;;;;1.63;79.87;93101.81;5092012;28;20071;-56
2022/03/06 00:19:33;;;;;;;9.60;7.70;;;;;;;1.65;79.57;93090.44;5092169;28;20024;-53
2022/03/06 00:21:59;;;;;;;12.65;8.13;;;;;;;1.70;79.57;93085.00;5092174;28;20028;-53
2022/03/06 00:24:25;;;;;;;11.35;7.50;;;;;;;1.52;79.54;93088.25;5091744;28;20038;-53
2022/03/06 00:26:50;;;;;;;11.95;7.97;;;;;;;1.49;80.08;93081.09;5091975;28;20111;-53
2022/03/06 00:29:16;;;;;;;9.85;7.43;;;;;;;1.43;79.53;93075.66;5092262;28;20045;-52
2022/03/06 00:31:41;;;;;;;9.57;7.72;;;;;;;1.56;80.55;93088.00;5091141;28;20027;-51
2022/03/06 00:34:07;;;;;;;12.25;8.80;;;;;;;1.53;80.10;93076.88;5074253;28;20417;-56
2022/03/06 00:36:32;;;;;;;12.13;8.93;;;;;;;1.59;79.73;93070.69;5092162;28;20024;-53
2022/03/06 00:38:58;;;;;;;10.43;6.85;;;;;;;1.64;78.53;93076.13;5091631;28;20185;-53
2022/03/06 00:41:23;;;;;;;9.68;7.75;;;;;;;1.59;78.69;93074.13;5105833;28;20034;-53
2022/03/06 00:43:49;;;;;;;8.13;7.13;;;;;;;1.47;77.44;93067.97;5112081;28;20454;-52
2022/03/06 00:46:15;;;;;;;8.68;6.78;;;;;;;1.47;76.93;93070.72;5112308;28;20065;-54
2022/03/06 00:48:40;;;;;;;8.05;7.00;;;;;;;1.41;76.17;93044.75;5112307;28;20458;-50
2022/03/06 00:51:06;;;;;;;12.93;9.18;;;;;;;1.46;76.59;93061.06;5112090;28;20039;-47
2022/03/06 00:53:31;;;;;;;11.55;8.57;;;;;;;1.52;76.48;93056.34;5112280;28;20022;-49
2022/03/06 00:55:56;;;;;;;14.40;9.50;;;;;;;1.40;77.51;93054.91;5111613;28;20059;-51
2022/03/06 00:58:22;;;;;;;11.90;6.80;;;;;;;1.42;76.65;93052.44;5111900;28;20028;-51
2022/03/06 01:00:48;;;;;;;8.65;6.80;;;;;;;1.32;76.66;93051.22;5111755;28;20027;-48
2022/03/06 01:03:16;;;;;;;12.63;9.15;;;;;;;1.29;76.82;93049.50;5099550;28;20028;-50
2022/03/06 01:05:42;;;;;;;11.57;8.13;;;;;;;1.38;76.50;93048.50;5091757;28;20044;-50
2022/03/06 01:08:08;;;;;;;10.85;8.13;;;;;;;1.40;76.32;93044.03;5091464;28;20453;-49
2022/03/06 01:10:35;;;;;;;10.85;8.75;;;;;;;1.36;76.54;93043.56;5088613;28;20153;-53
2022/03/06 01:13:02;;;;;;;11.98;9.00;;;;;;;1.33;76.47;93043.81;5091430;28;20028;-50
2022/03/06 01:15:28;;;;;;;14.93;9.85;;;;;;;1.31;78.05;93046.28;5091105;28;20020;-52
2022/03/06 01:17:53;;;;;;;11.55;8.48;;;;;;;1.17;79.02;93028.28;5091080;28;20081;-51
2022/03/06 01:20:19;;;;;;;10.90;8.45;;;;;;;1.42;78.17;93052.44;5091035;28;20032;-51
2022/03/06 01:22:46;;;;;;;9.00;7.22;;;;;;;1.32;77.11;93051.22;5091330;28;20032;-52
2022/03/06 01:25:12;;;;;;;8.82;6.90;;;;;;;1.40;77.28;93044.03;5091016;28;20511;-55
2022/03/06 01:27:38;;;;;;;14.40;10.02;;;;;;;1.41;78.28;93042.78;5091183;28;20020;-51
2022/03/06 01:30:05;;;;;;;10.43;7.85;;;;;;;1.47;77.18;93029.91;5090832;28;20046;-55
2022/03/06 01:32:32;;;;;;;11.75;8.68;;;;;;;1.41;78.03;93040.06;5090782;28;20115;-52
2022/03/06 01:34:58;;;;;;;9.10;7.15;;;;;;;1.40;77.60;93029.69;5090711;28;20028;-51
2022/03/06 01:37:23;;;;;;;11.85;7.95;;;;;;;1.27;78.10;93032.22;5090577;28;20035;-51
2022/03/06 01:39:48;;;;;;;11.23;7.55;;;;;;;1.19;77.92;93036.69;5090392;28;20034;-54
2022/03/06 01:42:14;;;;;;;11.05;8.30;;;;;;;1.22;77.89;93039.13;5090640;28;20024;-53
2022/03/06 01:44:39;;;;;;;11.30;8.23;;;;;;;1.17;79.29;93034.44;5090519;28;20070;-50
2022/03/06 01:47:05;;;;;;;10.85;7.88;;;;;;;1.17;79.22;93031.00;5072422;28;20043;-56
2022/03/06 01:49:31;;;;;;;8.60;6.57;;;;;;;1.28;79.21;93031.69;5090558;28;20020;-54
2022/03/06 01:51:56;;;;;;;10.88;7.30;;;;;;;1.30;79.61;93033.94;5090706;28;20024;-55
2022/03/06 01:54:22;;;;;;;10.25;7.15;;;;;;;1.19;79.38;93026.53;5090515;28;20252;-55
2022/03/06 01:56:47;;;;;;;8.88;6.28;;;;;;;1.15;79.26;93031.50;5090059;28;20080;-52
2022/03/06 01:59:12;;;;;;;12.63;8.13;;;;;;;1.15;80.17;93026.06;5090297;28;20028;-57
2022/03/06 02:01:38;;;;;;;7.75;6.00;;;;;;;1.19;79.58;93026.53;5090665;28;20024;-55
2022/03/06 02:04:03;;;;;;;6.75;5.63;;;;;;;1.07;79.99;93025.09;5071348;28;20562;-58
2022/03/06 02:06:29;;;;;;;6.72;5.65;;;;;;;1.07;80.11;93022.38;5071675;28;20055;-55
2022/03/06 02:08:54;;;;;;;9.23;5.80;;;;;;;1.17;79.45;93015.41;5090382;28;20024;-55
2022/03/06 02:11:24;;;;;;;7.78;6.10;;;;;;;1.14;79.20;93016.44;5076868;28;20032;-56
2022/03/06 02:13:50;;;;;;;9.07;6.47;;;;;;;1.20;78.47;93016.41;5070336;28;20123;-55
2022/03/06 02:16:15;;;;;;;6.55;5.20;;;;;;;1.28;78.58;93023.53;5070221;28;20162;-55
2022/03/06 02:18:41;;;;;;;6.60;5.03;;;;;;;1.27;77.92;93019.34;5070285;28;20527;-55
2022/03/06 02:21:11;;;;;;;8.95;5.65;;;;;;;1.44;78.31;93020.03;5069797;28;20759;-56
2022/03/06 02:23:40;;;;;;;5.93;4.45;;;;;;;1.34;77.27;93021.53;5069840;28;20025;-54
2022/03/06 02:26:07;;;;;;;6.75;4.90;;;;;;;1.17;77.32;92996.38;5069921;28;20036;-56
2022/03/06 02:28:33;;;;;;;5.72;5.00;;;;;;;1.39;77.72;93026.22;5070233;28;20463;-53
2022/03/06 02:30:59;;;;;;;5.85;4.82;;;;;;;1.40;77.33;93005.22;5069746;28;20115;-55
2022/03/06 02:33:24;;;;;;;5.55;3.95;;;;;;;1.48;76.12;93012.34;5051909;28;20020;-56
2022/03/06 02:35:50;;;;;;;6.47;4.85;;;;;;;1.53;76.15;93000.72;5070155;28;20063;-57
2022/03/06 02:38:15;;;;;;;5.40;4.55;;;;;;;1.50;75.31;93009.88;5069975;28;20025;-56
2022/03/06 02:40:43;;;;;;;6.07;5.15;;;;;;;1.58;75.44;93006.63;5077596;28;20474;-53
2022/03/06 02:43:10;;;;;;;5.95;4.45;;;;;;;1.51;76.07;93013.34;5088995;28;20024;-53
2022/03/06 02:45:37;;;;;;;5.18;3.80;;;;;;;1.40;75.19;93013.38;5090183;28;20398;-53
2022/03/06 02:48:02;;;;;;;5.75;4.80;;;;;;;1.45;75.01;93012.63;5090135;28;20082;-52
2022/03/06 02:50:31;;;;;;;7.65;5.13;;;;;;;1.40;75.88;93016.84;5071805;28;20447;-53
2022/03/06 02:52:58;;;;;;;7.13;5.55;;;;;;;1.30;76.51;93004.75;5089801;28;20024;-51
2022/03/06 02:55:25;;;;;;;6.80;4.13;;;;;;;1.37;75.81;93015.13;5091322;28;20036;-49
2022/03/06 02:57:50;;;;;;;5.15;3.90;;;;;;;1.40;75.89;93016.84;5093527;28;20437;-52
2022/03/06 03:00:18;;;;;;;7.35;5.40;;;;;;;1.30;76.32;93017.63;5094035;28;20027;-51
2022/03/06 03:02:43;;;;;;;9.70;5.95;;;;;;;1.38;75.99;93011.16;5093566;28;20107;-51
2022/03/06 03:05:13;;;;;;;6.38;4.80;;;;;;;1.38;75.71;93007.69;5075366;28;20113;-52
2022/03/06 03:07:39;;;;;;;11.27;6.55;;;;;;;1.47;75.86;93018.31;5093522;28;20482;-53
2022/03/06 03:10:07;;;;;;;10.18;6.97;;;;;;;1.46;76.81;93023.00;5093654;28;20023;-54
2022/03/06 03:12:32;;;;;;;17.13;8.82;;;;;;;1.38;76.22;93022.03;5093519;28;20511;-53
2022/03/06 03:14:57;;;;;;;4.63;3.90;;;;;;;1.47;76.12;93013.59;5093401;28;20024;-54
2022/03/06 03:17:23;;;;;;;6.15;4.25;;;;;;;1.29;76.96;93022.31;5093712;28;20025;-55
2022/03/06 03:19:48;;;;;;;8.02;5.63;;;;;;;1.32;77.78;93020.59;5093289;28;20024;-54
2022/03/06 03:22:14;;;;;;;11.50;6.78;;;;;;;1.35;77.13;93019.56;5093589;28;20031;-52
2022/03/06 03:24:39;;;;;;;8.20;6.10;;;;;;;1.24;77.86;93022.31;5093328;28;20028;-53
2022/03/06 03:27:05;;;;;;;9.98;6.63;;;;;;;1.28;78.02;93020.81;5093144;28;20036;-54
2022/03/06 03:29:30;;;;;;;10.57;6.75;;;;;;;1.20;77.72;93019.13;5093380;28;20023;-54
2022/03/06 03:31:56;;;;;;;10.23;5.80;;;;;;;1.09;78.60;93019.91;5093422;28;20027;-55
2022/03/06 03:34:21;;;;;;;5.38;4.18;;;;;;;1.27;78.48;93029.50;5093369;28;20031;-55
2022/03/06 03:36:47;;;;;;;9.95;6.05;;;;;;;1.29;78.57;93027.75;5092921;28;20101;-56
2022/03/06 03:39:12;;;;;;;9.25;6.85;;;;;;;1.28;79.61;93025.50;5092911;28;20028;-55
2022/03/06 03:41:38;;;;;;;9.05;5.05;;;;;;;1.28;79.20;93030.94;5092635;28;20032;-54
2022/03/06 03:44:03;;;;;;;18.95;14.27;;;;;;;1.36;79.33;93035.41;5093153;28;20040;-55
2022/03/06 03:46:29;;;;;;;6.07;4.70;;;;;;;1.42;79.44;93046.25;5092829;28;20024;-54
2022/03/06 03:48:54;;;;;;;8.75;5.47;;;;;;;1.39;78.80;93045.28;5093061;28;20020;-57
2022/03/06 03:51:20;;;;;;;6.82;5.30;;;;;;;1.49;77.63;93041.03;5092933;28;20032;-53
2022/03/06 03:53:45;;;;;;;5.57;4.22;;;;;;;1.47;77.38;93032.63;5092739;28;20032;-48
2022/03/06 03:56:11;;;;;;;7.22;5.03;;;;;;;1.34;78.53;93042.56;5092460;28;20044;-47
2022/03/06 03:58:36;;;;;;;16.15;10.43;;;;;;;1.18;78.34;93038.66;5092534;28;20027;-51
2022/03/06 04:01:02;;;;;;;12.60;7.63;;;;;;;1.19;79.64;93036.69;5092370;28;20036;-50
2022/03/06 04:03:27;;;;;;;8.38;5.95;;;;;;;1.09;79.63;93025.31;5092401;28;20102;-52
2022/03/06 04:05:53;;;;;;;8.63;5.80;;;;;;;1.06;79.68;93033.75;5092433;28;20032;-53
2022/03/06 04:08:18;;;;;;;9.75;5.55;;;;;;;1.14;78.97;93038.19;5092597;28;20035;-50
2022/03/06 04:10:44;;;;;;;13.25;7.72;;;;;;;1.08;79.97;93029.31;5084344;28;20509;-51
2022/03/06 04:13:10;;;;;;;7.10;5.13;;;;;;;1.08;79.22;93026.59;5072349;28;20402;-49
2022/03/06 04:15:35;;;;;;;9.98;6.28;;;;;;;1.05;79.85;93043.88;5080747;28;20077;-53
2022/03/06 04:18:01;;;;;;;18.40;11.10;;;;;;;1.00;80.56;93033.00;5092473;28;20024;-53
2022/03/06 04:20:26;;;;;;;11.50;8.40;;;;;;;1.11;81.08;93041.88;5092471;28;20027;-52
2022/03/06 04:22:52;;;;;;;10.45;6.97;;;;;;;1.10;80.51;93034.22;5092419;28;20485;-53
2022/03/06 04:25:18;;;;;;;11.48;7.55;;;;;;;1.21;80.56;93032.22;5092356;28;20047;-53
2022/03/06 04:27:43;;;;;;;12.10;7.63;;;;;;;1.28;80.11;93031.69;5092079;28;20016;-51
2022/03/06 04:30:09;;;;;;;14.10;7.20;;;;;;;1.36;79.87;93027.25;5092073;28;20028;-53
2022/03/06 04:32:35;;;;;;;8.07;5.75;;;;;;;1.19;79.12;93031.25;5091943;28;20042;-54
2022/03/06 04:35:01;;;;;;;6.57;5.75;;;;;;;1.33;78.62;93030.94;5092277;28;20036;-54
2022/03/06 04:37:26;;;;;;;7.70;5.38;;;;;;;1.38;79.08;93027.47;5092114;28;20023;-52
2022/03/06 04:39:52;;;;;;;7.72;4.95;;;;;;;1.22;78.47;93030.22;5091441;28;20034;-51
2022/03/06 04:42:17;;;;;;;6.95;5.60;;;;;;;1.23;78.27;93043.34;5092107;28;20069;-55
2022/03/06 04:44:43;;;;;;;5.78;4.25;;;;;;;1.29;77.93;93035.16;5091760;28;20020;-54
2022/03/06 04:47:08;;;;;;;7.13;5.65;;;;;;;1.34;78.53;93043.28;5091586;28;20081;-50
2022/03/06 04:49:34;;;;;;;6.90;4.82;;;;;;;1.37;77.87;93039.59;5091979;28;20016;-50
2022/03/06 04:51:59;;;;;;;8.82;5.85;;;;;;;1.25;78.02;93037.41;5091614;28;20028;-48
2022/03/06 04:54:25;;;;;;;5.55;4.18;;;;;;;1.17;78.36;93039.88;5091852;28;20024;-51
2022/03/06 04:56:51;;;;;;;5.22;4.13;;;;;;;1.11;78.99;93052.00;5091027;28;20518;-53
2022/03/06 04:59:16;;;;;;;6.57;5.40;;;;;;;1.09;79.27;93051.78;5091423;28;20023;-47
2022/03/06 05:01:42;;;;;;;7.00;5.40;;;;;;;1.22;79.66;93041.84;5091418;28;20023;-50
2022/03/06 05:04:08;;;;;;;7.82;5.88;;;;;;;1.21;79.86;93045.09;5091546;28;20016;-52
2022/03/06 05:06:34;;;;;;;7.22;5.80;;;;;;;1.32;79.03;93040.34;5091396;28;20511;-50
2022/03/06 05:08:59;;;;;;;11.10;7.07;;;;;;;1.42;78.69;93044.28;5091103;28;20016;-49
2022/03/06 05:11:25;;;;;;;7.85;5.20;;;;;;;1.22;79.02;93044.56;5059117;28;20040;-49
2022/03/06 05:13:50;;;;;;;17.00;10.95;;;;;;;1.28;78.14;93039.84;5071220;28;20082;-50
2022/03/06 05:16:16;;;;;;;7.22;5.60;;;;;;;1.35;77.77;93046.75;5071152;28;20016;-50
2022/03/06 05:18:41;;;;;;;8.43;5.72;;;;;;;1.28;77.69;93050.75;5070501;28;20048;-50
2022/03/06 05:21:07;;;;;;;6.63;4.93;;;;;;;1.35;78.79;93046.75;5070615;28;20447;-53
2022/03/06 05:23:32;;;;;;;6.13;4.65;;;;;;;1.30;78.80;93048.25;5071107;28;20016;-50
2022/03/06 05:25:58;;;;;;;6.25;4.60;;;;;;;1.33;77.89;93052.72;5070958;28;20035;-51
2022/03/06 05:28:26;;;;;;;7.68;6.13;;;;;;;1.30;78.96;93055.69;5070915;28;20566;-53
2022/03/06 05:30:51;;;;;;;7.75;5.50;;;;;;;1.29;78.46;93051.47;5070883;28;20431;-53
2022/03/06 05:33:16;;;;;;;9.93;5.90;;;;;;;1.27;77.24;93060.16;5052735;28;20025;-51
2022/03/06 05:35:42;;;;;;;5.35;4.57;;;;;;;1.38;77.41;93051.22;5070548;28;20025;-52
2022/03/06 05:38:07;;;;;;;6.90;5.18;;;;;;;1.17;76.84;93061.63;5070734;28;20017;-51
2022/03/06 05:40:33;;;;;;;5.60;3.92;;;;;;;1.31;76.04;93052.47;5084457;28;20076;-54
2022/03/06 05:42:58;;;;;;;5.68;4.25;;;;;;;1.37;76.17;93061.34;5110991;28;20042;-51
2022/03/06 05:45:24;;;;;;;9.10;4.53;;;;;;;1.36;76.30;93059.88;5111268;28;20104;-53
2022/03/06 05:47:49;;;;;;;6.15;4.93;;;;;;;1.27;76.87;93049.28;5111274;28;20408;-52
2022/03/06 05:50:15;;;;;;;6.55;5.00;;;;;;;1.22;76.08;93052.00;5111215;28;20023;-53
2022/03/06 05:52:40;;;;;;;23.73;11.00;;;;;;;1.04;77.19;93049.81;5099202;28;20497;-53
2022/03/06 05:55:07;;;;;;;13.75;6.35;;;;;;;1.13;77.63;93049.53;5090706;28;20028;-52
2022/03/06 05:57:32;;;;;;;9.35;6.22;;;;;;;1.18;78.30;93046.06;5090064;28;20478;-52
2022/03/06 05:59:58;;;;;;;11.57;6.43;;;;;;;1.13;78.18;93039.41;5072675;28;20036;-49
2022/03/06 06:02:23;;;;;;;12.27;6.40;;;;;;;1.13;78.43;93052.25;5085739;28;20016;-50
2022/03/06 06:04:49;;;;;;;11.52;7.38;;;;;;;1.18;76.44;93051.50;5070287;28;20024;-48
2022/03/06 06:07:15;;;;;;;9.65;6.68;;;;;;;1.10;77.85;93050.53;5070097;28;20085;-53
2022/03/06 06:09:40;;;;;;;12.00;7.57;;;;;;;0.99;77.37;93056.75;5070021;28;20020;-49
2022/03/06 06:12:07;;;;;;;9.75;6.18;;;;;;;1.14;77.57;93067.34;5089784;28;20024;-53
2022/03/06 06:14:32;;;;;;;7.72;4.85;;;;;;;1.09;77.13;93060.66;5088894;28;20055;-50
2022/03/06 06:16:58;;;;;;;6.63;4.40;;;;;;;1.29;75.76;93067.81;5090322;28;20059;-52
2022/03/06 06:19:23;;;;;;;7.88;4.63;;;;;;;1.39;76.66;93063.56;5090400;28;20402;-52
2022/03/06 06:21:49;;;;;;;7.55;5.55;;;;;;;1.42;75.63;93057.88;5090090;28;20024;-51
2022/03/06 06:24:15;;;;;;;5.22;4.25;;;;;;;1.64;75.36;93062.50;5090334;28;20028;-54
2022/03/06 06:26:41;;;;;;;5.78;5.13;;;;;;;1.73;74.75;93066.94;5090220;28;20486;-51
2022/03/06 06:29:07;;;;;;;4.18;3.55;;;;;;;1.73;74.49;93064.19;5090324;28;20501;-53
2022/03/06 06:31:33;;;;;;;4.07;3.65;;;;;;;1.50;73.46;93063.53;5093753;28;20027;-54
2022/03/06 06:33:58;;;;;;;3.97;3.47;;;;;;;1.54;72.71;93058.56;5094618;28;20028;-50
2022/03/06 06:36:24;;;;;;;5.53;4.22;;;;;;;1.56;72.91;93071.69;5094373;28;20509;-49
2022/03/06 06:38:49;;;;;;;6.10;3.83;;;;;;;1.56;73.84;93069.69;5094396;28;20020;-49
2022/03/06 06:41:15;;;;;;;127.78;97.00;;;;;;;1.43;73.64;93067.50;5093854;28;20036;-49
2022/03/06 06:43:42;;;;;;;11.38;8.10;;;;;;;1.42;74.18;93051.69;5094383;28;20020;-51
2022/03/06 06:46:08;;;;;;;5.05;3.88;;;;;;;1.52;72.91;93077.38;5094361;28;20024;-50
2022/03/06 06:48:33;;;;;;;5.93;4.18;;;;;;;1.38;73.84;93065.56;5093992;28;20024;-53
2022/03/06 06:50:59;;;;;;;8.40;5.93;;;;;;;1.69;73.23;93075.34;5075891;28;20031;-53
2022/03/06 06:53:24;;;;;;;5.63;4.30;;;;;;;1.72;72.17;93079.03;5093896;28;20042;-52
2022/03/06 06:55:50;;;;;;;12.52;7.88;;;;;;;1.92;73.36;93067.81;5093529;28;20048;-53
2022/03/06 06:58:15;;;;;;;12.80;8.15;;;;;;;1.92;73.81;93062.38;5093717;28;20020;-50
2022/03/06 07:00:41;;;;;;;14.82;7.93;;;;;;;1.97;71.68;93067.06;5094055;28;20020;-50
2022/03/06 07:03:07;;;;;;;5.40;3.80;;;;;;;1.99;71.39;93072.75;5093481;28;20436;-52
2022/03/06 07:05:32;;;;;;;7.80;5.50;;;;;;;2.08;71.33;93064.28;5093854;28;20055;-51
2022/03/06 07:07:58;;;;;;;6.38;4.82;;;;;;;2.18;72.63;93058.03;5090601;28;20097;-51
2022/03/06 07:10:23;;;;;;;11.98;7.72;;;;;;;2.14;71.61;93067.72;5082309;28;20027;-51
2022/03/06 07:12:55;;;;;;;5.80;3.60;;;;;;;2.13;70.21;93061.53;5093333;28;20046;-49
2022/03/06 07:15:27;;;;;;;4.43;3.65;;;;;;;2.00;71.42;93061.34;5093791;28;20016;-47
2022/03/06 07:17:54;;;;;;;5.22;4.15;;;;;;;2.00;72.16;93057.88;5093727;28;20477;-50
2022/03/06 07:20:20;;;;;;;3.92;3.20;;;;;;;2.13;70.09;93066.97;5093510;28;20081;-47
2022/03/06 07:22:45;;;;;;;5.80;4.00;;;;;;;2.02;71.15;93063.56;5075495;28;20443;-49
2022/03/06 07:25:11;;;;;;;4.90;3.58;;;;;;;2.16;71.68;93059.78;5093500;28;20059;-49
2022/03/06 07:27:36;;;;;;;4.13;3.08;;;;;;;2.37;69.32;93071.03;5093243;28;20020;-51
2022/03/06 07:30:02;;;;;;;6.32;4.00;;;;;;;2.29;70.23;93073.56;5093198;28;20059;-49
2022/03/06 07:32:27;;;;;;;10.18;6.05;;;;;;;2.19;72.13;93070.41;5093467;28;20099;-49
2022/03/06 07:34:53;;;;;;;5.47;4.05;;;;;;;2.08;69.92;93080.63;5092986;28;20497;-50
2022/03/06 07:37:18;;;;;;;5.80;4.28;;;;;;;2.03;71.39;93073.97;5093312;28;20019;-50
2022/03/06 07:39:44;;;;;;;6.43;4.50;;;;;;;2.11;71.45;93077.63;5092579;28;20505;-50
2022/03/06 07:42:09;;;;;;;20.10;13.60;;;;;;;2.22;72.72;93074.84;5092468;28;20130;-49
2022/03/06 07:44:35;;;;;;;11.68;7.18;;;;;;;2.33;71.16;93074.03;5092908;28;20020;-51
2022/03/06 07:47:01;;;;;;;10.23;7.38;;;;;;;2.44;71.56;93079.41;5092815;28;20020;-51
2022/03/06 07:49:26;;;;;;;12.23;9.10;;;;;;;2.60;72.32;93072.38;5093181;28;20015;-49
2022/03/06 07:51:52;;;;;;;3.90;3.47;;;;;;;2.88;70.07;93078.38;5070739;28;20430;-52
2022/03/06 07:54:17;;;;;;;7.35;5.55;;;;;;;2.93;70.01;93070.13;5069285;28;20025;-46
2022/03/06 07:56:45;;;;;;;5.47;4.07;;;;;;;2.90;69.50;93071.13;5069827;28;20044;-50
2022/03/06 07:59:10;;;;;;;10.40;7.10;;;;;;;2.89;71.09;93074.38;5069725;28;20074;-52
2022/03/06 08:01:36;;;;;;;14.23;9.05;;;;;;;2.77;71.25;93067.56;5069998;28;20020;-47
2022/03/06 08:04:02;;;;;;;8.73;5.55;;;;;;;2.51;70.74;93056.34;5088579;28;20027;-48
2022/03/06 08:06:27;;;;;;;6.03;4.45;;;;;;;2.72;71.06;93081.94;5090775;28;20019;-49
2022/03/06 08:08:53;;;;;;;9.27;6.53;;;;;;;2.67;72.32;93066.38;5090183;28;20460;-50
2022/03/06 08:11:18;;;;;;;9.85;6.47;;;;;;;2.83;72.84;93070.97;5077106;28;20609;-51
2022/03/06 08:13:44;;;;;;;12.43;9.27;;;;;;;2.88;71.81;93076.38;5070117;28;20024;-53
2022/03/06 08:16:09;;;;;;;6.10;4.70;;;;;;;3.01;70.02;93079.22;5069892;28;20517;-53
2022/03/06 08:18:35;;;;;;;9.25;6.07;;;;;;;2.92;70.99;93073.38;5069876;28;20029;-50
2022/03/06 08:21:01;;;;;;;5.78;4.32;;;;;;;2.73;71.83;93086.88;5069410;28;20023;-51
2022/03/06 08:23:27;;;;;;;10.57;6.97;;;;;;;2.50;72.99;93085.56;5072784;28;20028;-47
2022/03/06 08:25:52;;;;;;;6.55;4.50;;;;;;;2.66;72.75;93092.16;5071086;28;20020;-48
2022/03/06 08:28:18;;;;;;;5.45;3.65;;;;;;;2.64;71.03;93098.09;5089697;28;20016;-48
2022/03/06 08:30:43;;;;;;;11.40;6.43;;;;;;;2.48;71.92;93085.34;5089230;28;20027;-47
2022/03/06 08:33:09;;;;;;;8.48;6.25;;;;;;;2.28;73.86;93082.97;5088384;28;20107;-47
2022/03/06 08:35:34;;;;;;;5.82;4.35;;;;;;;2.54;72.69;93086.03;5087708;28;20476;-51
2022/03/06 08:38:00;;;;;;;5.07;4.38;;;;;;;2.51;72.73;93078.16;5087815;28;20058;-51
2022/03/06 08:40:26;;;;;;;5.47;4.95;;;;;;;2.64;72.97;93081.75;5090016;28;20393;-50
2022/03/06 08:42:51;;;;;;;4.93;4.43;;;;;;;2.53;72.48;93083.81;5088019;28;20539;-48
2022/03/06 08:45:17;;;;;;;6.18;4.68;;;;;;;2.65;71.67;93096.88;5086863;28;20028;-48
2022/03/06 08:47:43;;;;;;;5.28;4.22;;;;;;;2.55;72.16;93079.34;5086357;28;20062;-48
2022/03/06 08:50:08;;;;;;;5.93;4.68;;;;;;;2.49;72.09;93097.69;5087006;28;20449;-51
2022/03/06 08:52:34;;;;;;;8.23;6.13;;;;;;;2.29;71.96;93092.66;5086279;28;20524;-49
2022/03/06 08:54:59;;;;;;;7.35;4.57;;;;;;;2.30;72.67;93086.69;5086487;28;20068;-50
2022/03/06 08:57:25;;;;;;;5.00;4.13;;;;;;;2.13;73.47;93096.19;5086950;28;20052;-48
2022/03/06 08:59:51;;;;;;;4.63;4.03;;;;;;;2.21;73.25;93091.69;5087709;28;20462;-50
2022/03/06 09:02:16;;;;;;;13.88;8.90;;;;;;;2.25;73.74;93086.72;5083374;28;20020;-52
2022/03/06 09:04:42;;;;;;;6.47;3.92;;;;;;;2.17;73.11;93091.22;5067033;28;20123;-48
2022/03/06 09:07:07;;;;;;;7.63;5.00;;;;;;;2.03;75.16;93105.91;5067116;28;20029;-48
2022/03/06 09:09:33;;;;;;;10.65;6.15;;;;;;;2.10;74.98;93106.09;5067883;28;20037;-48
2022/03/06 09:11:58;;;;;;;6.10;4.72;;;;;;;2.25;74.74;93095.63;5068316;28;20447;-52
2022/03/06 09:14:24;;;;;;;11.13;6.63;;;;;;;1.91;75.20;93109.88;5068385;28;20035;-49
2022/03/06 09:16:49;;;;;;;7.57;4.63;;;;;;;2.14;75.72;93100.41;5068310;28;20059;-49
2022/03/06 09:19:14;;;;;;;15.25;7.70;;;;;;;2.18;75.36;93098.16;5068406;28;20032;-49
2022/03/06 09:21:40;;;;;;;9.10;6.13;;;;;;;2.17;76.07;93089.22;5069016;28;20052;-48
2022/03/06 09:24:08;;;;;;;9.13;6.00;;;;;;;2.54;76.17;93086.03;5068872;28;20114;-48
2022/03/06 09:26:33;;;;;;;7.18;4.70;;;;;;;2.81;74.65;93090.56;5068463;28;20037;-48
2022/03/06 09:28:59;;;;;;;6.40;5.03;;;;;;;3.19;72.86;93093.47;5068523;28;20571;-52
2022/03/06 09:31:25;;;;;;;8.10;4.68;;;;;;;3.40;72.76;93091.78;5068661;28;20054;-47
2022/03/06 09:33:51;;;;;;;5.57;4.18;;;;;;;3.43;71.34;93090.75;5068598;28;20146;-51
2022/03/06 09:36:17;;;;;;;5.55;4.55;;;;;;;3.55;70.37;93084.66;5068030;28;20036;-50
2022/03/06 09:38:42;;;;;;;5.53;4.00;;;;;;;3.58;70.64;93091.09;5067919;28;20036;-48
2022/03/06 09:41:09;;;;;;;3.97;3.45;;;;;;;3.31;70.87;93090.13;5091671;28;20024;-52
2022/03/06 09:43:34;;;;;;;3.90;3.60;;;;;;;3.29;71.32;93078.97;5090528;28;20027;-48
2022/03/06 09:46:06;;;;;;;4.10;3.15;;;;;;;3.22;71.33;93074.09;5091088;28;20026;-51
2022/03/06 09:48:32;;;;;;;4.38;3.55;;;;;;;3.52;70.86;93072.06;5108794;28;20050;-48
2022/03/06 09:50:57;;;;;;;3.40;2.80;;;;;;;3.64;69.75;93075.38;5108424;28;20055;-47
2022/03/06 09:53:23;;;;;;;4.28;3.20;;;;;;;3.66;69.10;93073.63;5107542;28;20144;-48
2022/03/06 09:55:49;;;;;;;3.72;2.90;;;;;;;3.38;70.07;93067.72;5090235;28;20026;-48
2022/03/06 09:58:14;;;;;;;4.25;3.30;;;;;;;3.70;68.18;93060.44;5108639;28;20030;-49
2022/03/06 10:00:40;;;;;;;5.10;3.78;;;;;;;3.73;69.04;93059.41;5108465;28;20029;-49
2022/03/06 10:03:06;;;;;;;4.30;2.90;;;;;;;3.92;68.42;93056.69;5097508;28;20039;-48
2022/03/06 10:05:37;;;;;;;6.60;4.28;;;;;;;4.15;67.76;93041.53;5087343;28;20413;-49
2022/03/06 10:08:21;;;;;;;3.63;3.03;;;;;;;4.10;65.87;93052.50;5085008;28;20047;-54
2022/03/06 10:10:49;;;;;;;3.70;2.40;;;;;;;3.34;66.16;93058.34;5075092;28;20463;-50
2022/03/06 10:13:20;;;;;;;5.43;3.45;;;;;;;3.33;67.85;93056.88;5086217;28;20035;-49
2022/03/06 10:16:05;;;;;;;10.10;5.40;;;;;;;3.38;68.64;93067.00;5087712;28;20036;-53
2022/03/06 10:18:33;;;;;;;4.47;3.03;;;;;;;3.44;67.54;93071.16;5088028;28;20032;-54
2022/03/06 10:21:02;;;;;;;8.00;4.82;;;;;;;3.66;68.67;93054.53;5087706;28;20078;-53
2022/03/06 10:23:28;;;;;;;3.17;2.40;;;;;;;3.72;66.55;93057.94;5088113;28;20020;-52
2022/03/06 10:26:12;;;;;;;4.78;2.28;;;;;;;3.72;66.62;93057.19;5087450;28;20412;-50
2022/03/06 10:28:50;;;;;;;4.25;2.90;;;;;;;3.58;66.83;93056.34;5086894;28;20020;-52
2022/03/06 10:31:16;;;;;;;6.85;4.55;;;;;;;3.56;69.16;93052.66;5086875;28;20789;-48
2022/03/06 10:33:57;;;;;;;3.85;2.75;;;;;;;3.65;67.38;93060.50;5086616;28;20036;-50
2022/03/06 10:36:39;;;;;;;5.82;4.45;;;;;;;3.40;70.80;93064.50;5085586;28;20056;-53
2022/03/06 10:39:29;;;;;;;3.92;3.10;;;;;;;3.40;70.32;93062.50;5086738;28;20027;-50
2022/03/06 10:41:56;;;;;;;3.53;2.70;;;;;;;3.45;70.13;93072.63;5090054;28;20051;-49
2022/03/06 10:44:23;;;;;;;18.67;9.95;;;;;;;3.26;70.44;93066.38;5087432;28;20416;-49
2022/03/06 10:47:03;;;;;;;5.57;4.78;;;;;;;2.94;72.23;93057.25;5069396;28;20043;-50
2022/03/06 10:49:30;;;;;;;4.50;3.28;;;;;;;2.88;73.36;93051.09;5087728;28;20673;-49
2022/03/06 10:51:56;;;;;;;5.68;3.05;;;;;;;2.87;74.23;93050.34;5087982;28;20039;-53
2022/03/06 10:54:21;;;;;;;6.35;4.90;;;;;;;3.05;75.22;93048.97;5068548;28;20487;-49
2022/03/06 10:56:51;;;;;;;4.60;3.10;;;;;;;2.86;73.83;93039.94;5085833;28;20503;-56
2022/03/06 10:59:21;;;;;;;8.43;3.88;;;;;;;2.53;75.13;93051.88;5086241;28;20028;-51
2022/03/06 11:01:48;;;;;;;3.72;2.65;;;;;;;2.53;74.96;93059.31;5086316;28;20032;-52
2022/03/06 11:04:16;;;;;;;4.85;3.35;;;;;;;2.29;75.75;93059.97;5065836;28;20560;-50
2022/03/06 11:06:42;;;;;;;4.95;3.92;;;;;;;2.11;75.71;93053.13;5066329;28;20032;-51
2022/03/06 11:09:16;;;;;;;4.85;3.67;;;;;;;2.18;76.62;93047.16;5065953;28;20029;-52
2022/03/06 11:11:43;;;;;;;4.28;3.33;;;;;;;2.21;76.15;93040.69;5081914;28;20103;-50
2022/03/06 11:14:09;;;;;;;4.03;3.63;;;;;;;2.32;74.82;93039.16;5086595;28;20476;-51
2022/03/06 11:16:37;;;;;;;4.80;3.33;;;;;;;2.45;74.86;93045.47;5070703;28;20107;-52
2022/03/06 11:19:07;;;;;;;3.90;3.42;;;;;;;2.52;74.63;93042.22;5089913;28;20067;-51
2022/03/06 11:21:34;;;;;;;5.30;3.75;;;;;;;2.50;75.34;93049.41;5089814;28;20093;-53
2022/03/06 11:24:06;;;;;;;5.82;4.32;;;;;;;2.72;75.48;93050.00;5110159;28;20050;-53
2022/03/06 11:26:34;;;;;;;4.55;3.90;;;;;;;2.86;75.43;93042.66;5111492;28;20570;-51
2022/03/06 11:29:13;;;;;;;3.80;3.07;;;;;;;2.84;73.60;93035.00;5111439;28;20028;-52
2022/03/06 11:31:51;;;;;;;3.90;2.72;;;;;;;2.77;71.30;93038.28;5093374;28;20038;-53
2022/03/06 11:34:25;;;;;;;3.30;3.00;;;;;;;2.75;71.78;93043.50;5096754;28;20040;-51